Time;durP1;ratioP1;P1;durP2;ratioP2;P2;SDS_P1;SDS_P2;PMS_P1;PMS_P2;Temp;Humidity;BMP_temperature;BMP_pressure;BME280_temperature;BME280_humidity;BME280_pressure;Samples;Min_cycle;Max_cycle;Signal;HPM_P1;HPM_P2
2023/10/24 00:01:27;;;;;;;21.65;13.45;;;;;;;-149.70;100.00;77005.97;4993507;28;20109;-64
2023/10/24 00:03:54;;;;;;;20.35;12.75;;;;;;;-149.70;100.00;76999.88;5011656;28;20077;-65
2023/10/24 00:06:25;;;;;;;21.25;13.07;;;;;;;-149.70;100.00;76999.88;5011739;28;20050;-65
2023/10/24 00:08:52;;;;;;;18.40;12.20;;;;;;;-149.70;100.00;76991.75;5011184;28;20046;-64
2023/10/24 00:11:18;;;;;;;17.10;13.00;;;;;;;-149.70;100.00;76987.69;5011955;28;20050;-64
2023/10/24 00:13:45;;;;;;;22.38;12.88;;;;;;;-149.70;100.00;76995.81;5011357;28;20045;-64
2023/10/24 00:16:12;;;;;;;19.80;13.07;;;;;;;-149.70;100.00;76995.81;5011330;28;20126;-64
2023/10/24 00:18:38;;;;;;;19.65;12.63;;;;;;;-149.70;100.00;77001.91;5008521;28;20083;-64
2023/10/24 00:21:06;;;;;;;22.83;12.65;;;;;;;-149.70;100.00;76997.84;4991316;28;20084;-65
2023/10/24 00:23:32;;;;;;;19.52;11.85;;;;;;;-149.70;100.00;76991.75;4991669;28;20565;-64
2023/10/24 00:25:59;;;;;;;19.20;13.02;;;;;;;-149.70;100.00;76987.69;4991693;28;20042;-65
2023/10/24 00:28:26;;;;;;;21.45;12.45;;;;;;;-149.70;100.00;76993.78;4991721;28;20108;-65
2023/10/24 00:30:52;;;;;;;20.20;12.82;;;;;;;-149.70;100.00;76979.56;4991635;28;20042;-64
2023/10/24 00:33:19;;;;;;;19.33;12.55;;;;;;;-149.70;100.00;76987.69;4991957;28;20418;-65
2023/10/24 00:35:45;;;;;;;20.35;12.43;;;;;;;-149.70;100.00;76983.63;4991533;28;20046;-65
2023/10/24 00:38:13;;;;;;;26.15;13.90;;;;;;;-149.70;100.00;76983.63;4991279;28;20053;-66
2023/10/24 00:40:39;;;;;;;24.15;12.90;;;;;;;-149.70;100.00;76973.44;4991391;28;20569;-65
2023/10/24 00:43:06;;;;;;;19.90;12.07;;;;;;;-149.70;100.00;76971.41;4990955;28;20470;-64
2023/10/24 00:45:35;;;;;;;18.88;12.68;;;;;;;-149.70;100.00;76971.41;4990541;28;20154;-65
2023/10/24 00:48:04;;;;;;;26.70;12.88;;;;;;;-149.70;100.00;76963.28;4991235;28;20042;-65
2023/10/24 00:50:31;;;;;;;23.40;13.70;;;;;;;-149.70;100.00;76959.22;4989128;28;20077;-65
2023/10/24 00:53:00;;;;;;;22.80;13.27;;;;;;;-149.70;100.00;76959.22;4987673;28;20038;-65
2023/10/24 00:55:29;;;;;;;26.50;13.15;;;;;;;-149.70;100.00;76953.13;4988119;28;20097;-64
2023/10/24 00:57:59;;;;;;;24.83;13.25;;;;;;;-149.70;100.00;76955.16;4988271;28;20406;-65
2023/10/24 01:00:26;;;;;;;22.25;13.45;;;;;;;-149.70;100.00;76947.00;4990026;28;20427;-65
2023/10/24 01:02:54;;;;;;;22.95;13.23;;;;;;;-149.70;100.00;76942.94;5004064;28;20470;-65
2023/10/24 01:05:21;;;;;;;18.92;12.90;;;;;;;-149.70;100.00;76938.88;5010988;28;20058;-65
2023/10/24 01:07:47;;;;;;;17.42;13.10;;;;;;;-149.70;100.00;76947.00;5011077;28;20042;-65
2023/10/24 01:10:14;;;;;;;23.88;13.95;;;;;;;-149.70;100.00;76942.94;5009723;28;20048;-65
2023/10/24 01:12:41;;;;;;;20.17;13.82;;;;;;;-149.70;100.00;76942.94;5010373;28;20072;-65
2023/10/24 01:15:08;;;;;;;22.60;13.38;;;;;;;-149.70;100.00;76930.75;4992903;28;20053;-65
2023/10/24 01:17:35;;;;;;;28.08;14.57;;;;;;;-149.70;100.00;76934.81;5010446;28;20054;-65
2023/10/24 01:20:02;;;;;;;22.83;14.10;;;;;;;-149.70;100.00;76934.81;4996672;28;20073;-65
2023/10/24 01:22:28;;;;;;;29.30;14.25;;;;;;;-149.70;100.00;76934.81;4990936;28;20049;-66
2023/10/24 01:24:55;;;;;;;19.33;13.57;;;;;;;-149.70;100.00;76920.56;4991120;28;20050;-65
2023/10/24 01:27:23;;;;;;;25.83;15.23;;;;;;;-149.70;100.00;76926.69;4990102;28;20054;-64
2023/10/24 01:29:52;;;;;;;23.33;14.05;;;;;;;-149.70;100.00;76914.47;4990707;28;20066;-65
2023/10/24 01:32:28;;;;;;;24.98;14.57;;;;;;;-149.70;100.00;76912.44;4991100;28;20046;-65
2023/10/24 01:34:55;;;;;;;22.00;13.82;;;;;;;-149.70;100.00;76906.34;4990610;28;20046;-65
2023/10/24 01:37:21;;;;;;;20.33;13.50;;;;;;;-149.70;100.00;76890.06;4991267;28;20129;-65
2023/10/24 01:39:48;;;;;;;24.48;13.65;;;;;;;-149.70;100.00;76896.16;4991032;28;20061;-65
2023/10/24 01:42:14;;;;;;;18.67;13.85;;;;;;;-149.70;100.00;76890.06;4990879;28;20053;-65
2023/10/24 01:44:41;;;;;;;30.38;13.85;;;;;;;-149.70;100.00;76892.09;4990088;28;20568;-65
2023/10/24 01:47:08;;;;;;;25.15;13.90;;;;;;;-149.70;100.00;76886.00;4988167;28;20053;-65
2023/10/24 01:49:34;;;;;;;23.38;13.85;;;;;;;-149.70;100.00;76881.94;4987070;28;20495;-64
2023/10/24 01:52:01;;;;;;;29.83;14.43;;;;;;;-149.70;100.00;76879.91;5009216;28;20128;-65
2023/10/24 01:54:27;;;;;;;20.50;13.38;;;;;;;-149.70;100.00;76879.91;4994918;28;20054;-65
2023/10/24 01:56:54;;;;;;;24.98;13.32;;;;;;;-149.70;100.00;76873.81;4990592;28;20130;-65
2023/10/24 01:59:21;;;;;;;22.75;14.27;;;;;;;-149.70;100.00;76873.81;4990723;28;20054;-65
2023/10/24 02:01:48;;;;;;;23.75;14.80;;;;;;;-149.70;100.00;76857.53;4994731;28;20069;-65
2023/10/24 02:04:15;;;;;;;24.63;13.30;;;;;;;-149.70;100.00;76857.53;5009355;28;20069;-65
2023/10/24 02:07:23;;;;;;;23.13;13.05;;;;;;;-149.70;100.00;76853.47;5009738;28;20050;-65
2023/10/24 02:10:14;;;;;;;25.73;13.82;;;;;;;-149.70;100.00;76857.53;5007079;28;20103;-65
2023/10/24 02:12:41;;;;;;;21.33;13.52;;;;;;;-149.70;100.00;76853.47;5008247;28;20494;-65
2023/10/24 02:15:09;;;;;;;19.48;13.20;;;;;;;-149.70;100.00;76855.50;5008536;28;20041;-65
2023/10/24 02:17:35;;;;;;;21.77;14.45;;;;;;;-149.70;100.00;76853.47;5007911;28;20046;-65
2023/10/24 02:20:04;;;;;;;23.23;13.98;;;;;;;-149.70;100.00;76853.47;4994491;28;20074;-65
2023/10/24 02:22:32;;;;;;;21.77;13.18;;;;;;;-149.70;100.00;76853.47;4989344;28;20568;-65
2023/10/24 02:24:58;;;;;;;30.25;13.93;;;;;;;-149.70;100.00;76849.41;4989039;28;20042;-65
2023/10/24 02:27:25;;;;;;;26.17;14.32;;;;;;;-149.70;100.00;76841.25;4988276;28;20097;-65
2023/10/24 02:29:51;;;;;;;26.20;15.05;;;;;;;-149.70;100.00;76843.31;4987976;28;20112;-64
2023/10/24 02:32:18;;;;;;;26.40;13.00;;;;;;;-149.70;100.00;76837.19;4988927;28;20470;-65
2023/10/24 02:34:49;;;;;;;24.73;13.10;;;;;;;-149.70;100.00;76835.16;4987706;28;20053;-65
2023/10/24 02:37:16;;;;;;;24.55;13.52;;;;;;;-149.70;100.00;76825.00;4987575;28;20069;-65
2023/10/24 02:39:43;;;;;;;24.17;13.50;;;;;;;-149.70;100.00;76833.13;4988797;28;20054;-64
2023/10/24 02:42:09;;;;;;;22.30;13.73;;;;;;;-149.70;100.00;76839.22;4988272;28;20184;-65
2023/10/24 02:44:37;;;;;;;30.73;14.07;;;;;;;-149.70;100.00;76825.00;4988559;28;20074;-65
2023/10/24 02:47:03;;;;;;;27.30;14.00;;;;;;;-149.70;100.00;76818.91;5004305;28;20708;-64
2023/10/24 02:49:33;;;;;;;26.33;13.77;;;;;;;-149.70;100.00;76822.97;5002360;28;20479;-64
2023/10/24 02:52:00;;;;;;;24.60;14.60;;;;;;;-149.70;100.00;76825.00;4985456;28;20442;-65
2023/10/24 02:54:26;;;;;;;25.65;13.60;;;;;;;-149.70;100.00;76833.13;4985708;28;20104;-65
2023/10/24 02:56:53;;;;;;;23.25;13.90;;;;;;;-149.70;100.00;76825.00;4986489;28;20046;-65
2023/10/24 02:59:20;;;;;;;25.45;13.43;;;;;;;-149.70;100.00;76812.78;4985218;28;20100;-65
2023/10/24 03:01:46;;;;;;;23.80;12.85;;;;;;;-149.70;100.00;76792.47;4968417;28;20054;-65
2023/10/24 03:04:13;;;;;;;20.85;12.88;;;;;;;-149.70;100.00;76818.91;4988374;28;20074;-65
2023/10/24 03:06:39;;;;;;;26.65;13.73;;;;;;;-149.70;100.00;76804.66;4990073;28;20132;-65
2023/10/24 03:09:06;;;;;;;28.50;13.32;;;;;;;-149.70;100.00;76814.81;4989697;28;20457;-65
2023/10/24 03:11:32;;;;;;;28.10;14.48;;;;;;;-149.70;100.00;76816.88;4989575;28;20046;-65
2023/10/24 03:13:59;;;;;;;29.00;12.88;;;;;;;-149.70;100.00;76804.66;4989870;28;20093;-65
2023/10/24 03:16:26;;;;;;;25.42;14.30;;;;;;;-149.70;100.00;76816.88;4988061;28;20050;-66
2023/10/24 03:18:53;;;;;;;27.23;13.25;;;;;;;-149.70;100.00;76810.75;4989142;28;20495;-65
2023/10/24 03:21:20;;;;;;;24.17;12.80;;;;;;;-149.70;100.00;76794.50;4989324;28;20066;-66
2023/10/24 03:23:47;;;;;;;26.05;13.13;;;;;;;-149.70;100.00;76776.19;4989493;28;20387;-66
2023/10/24 03:26:13;;;;;;;23.05;13.15;;;;;;;-149.70;100.00;76776.19;4989691;28;20074;-65
2023/10/24 03:28:40;;;;;;;27.90;13.88;;;;;;;-149.70;100.00;76796.53;4987644;28;20046;-65
2023/10/24 03:31:08;;;;;;;29.17;13.75;;;;;;;-149.70;100.00;76788.41;4973501;28;20050;-65
2023/10/24 03:33:34;;;;;;;27.55;13.10;;;;;;;-149.70;100.00;76794.50;4983375;28;20061;-65
2023/10/24 03:36:02;;;;;;;25.05;14.20;;;;;;;-149.70;100.00;76788.41;4948593;28;20476;-65
2023/10/24 03:38:29;;;;;;;32.35;15.48;;;;;;;-149.70;100.00;76784.31;4946574;28;20098;-66
2023/10/24 03:40:56;;;;;;;28.00;13.52;;;;;;;-149.70;100.00;76778.22;4986509;28;20054;-66
2023/10/24 03:43:23;;;;;;;33.78;13.85;;;;;;;-149.70;100.00;76776.19;4991019;28;20046;-66
2023/10/24 03:45:49;;;;;;;28.00;14.35;;;;;;;-149.70;100.00;76774.16;5003675;28;20037;-65
2023/10/24 03:48:16;;;;;;;31.15;13.73;;;;;;;-149.70;100.00;76759.94;5010904;28;20344;-65
2023/10/24 03:50:43;;;;;;;24.95;13.18;;;;;;;-149.70;100.00;76749.75;5008770;28;20088;-65
2023/10/24 03:53:09;;;;;;;25.42;13.80;;;;;;;-149.70;100.00;76751.78;5007657;28;20050;-65
2023/10/24 03:55:36;;;;;;;23.48;13.88;;;;;;;-149.70;100.00;76772.13;4970684;28;20065;-65
2023/10/24 03:58:02;;;;;;;27.83;13.10;;;;;;;-149.70;100.00;76761.97;4978000;28;20132;-65
2023/10/24 04:00:30;;;;;;;22.58;12.52;;;;;;;-149.70;100.00;76768.06;4994692;28;20490;-65
2023/10/24 04:02:57;;;;;;;27.13;13.80;;;;;;;-149.70;100.00;76770.09;4996608;28;20469;-65
2023/10/24 04:05:23;;;;;;;28.67;15.05;;;;;;;-149.70;100.00;76755.84;4990561;28;20050;-65
2023/10/24 04:07:50;;;;;;;36.75;15.07;;;;;;;-149.70;100.00;76766.03;4990101;28;20494;-66
2023/10/24 04:10:16;;;;;;;30.48;14.98;;;;;;;-149.70;100.00;76764.00;4990978;28;20049;-65
2023/10/24 04:12:43;;;;;;;27.20;15.38;;;;;;;-149.70;100.00;76755.84;4990485;28;20408;-65
2023/10/24 04:15:10;;;;;;;24.58;14.77;;;;;;;-149.70;100.00;76761.97;4989716;28;20054;-65
2023/10/24 04:17:37;;;;;;;29.20;15.63;;;;;;;-149.70;100.00;76757.91;4990495;28;20042;-65
2023/10/24 04:20:06;;;;;;;35.15;16.42;;;;;;;-149.70;100.00;76768.06;5004593;28;20045;-65
2023/10/24 04:22:35;;;;;;;28.80;16.38;;;;;;;-149.70;100.00;76761.97;5010586;28;20498;-66
2023/10/24 04:25:03;;;;;;;26.38;15.88;;;;;;;-149.70;100.00;76755.84;5011419;28;20050;-66
2023/10/24 04:27:30;;;;;;;38.53;17.15;;;;;;;-149.70;100.00;76757.91;5010446;28;20046;-66
2023/10/24 04:29:58;;;;;;;36.38;18.20;;;;;;;-149.70;100.00;76747.72;5011305;28;20049;-66
2023/10/24 04:32:25;;;;;;;36.63;16.80;;;;;;;-149.70;100.00;76755.84;5010306;28;20053;-66
2023/10/24 04:34:52;;;;;;;31.05;16.95;;;;;;;-149.70;100.00;76759.94;5010624;28;20174;-66
2023/10/24 04:37:19;;;;;;;26.60;16.75;;;;;;;-149.70;100.00;76751.78;5010501;28;20126;-66
2023/10/24 04:39:46;;;;;;;32.70;18.83;;;;;;;-149.70;100.00;76749.75;5010604;28;20449;-67
2023/10/24 04:42:13;;;;;;;32.45;18.33;;;;;;;-149.70;100.00;76755.84;5010542;28;20046;-66
2023/10/24 04:44:40;;;;;;;39.63;19.70;;;;;;;-149.70;100.00;76749.75;5009936;28;20536;-65
2023/10/24 04:47:07;;;;;;;33.80;18.83;;;;;;;-149.70;100.00;76739.59;5009728;28;20478;-66
2023/10/24 04:49:36;;;;;;;33.15;18.95;;;;;;;-149.70;100.00;76747.72;5007622;28;20538;-65
2023/10/24 04:52:04;;;;;;;38.45;17.27;;;;;;;-149.70;100.00;76753.81;5007072;28;20056;-66
2023/10/24 04:54:31;;;;;;;32.35;19.10;;;;;;;-149.70;100.00;76733.50;5007482;28;20092;-66
2023/10/24 04:56:59;;;;;;;32.47;18.63;;;;;;;-149.70;100.00;76743.66;4976485;28;20775;-66
2023/10/24 04:59:27;;;;;;;36.13;19.30;;;;;;;-149.70;100.00;76739.59;4976335;28;20404;-66
2023/10/24 05:01:53;;;;;;;28.88;18.48;;;;;;;-149.70;100.00;76723.31;4968199;28;20459;-66
2023/10/24 05:04:20;;;;;;;34.95;17.77;;;;;;;-149.70;100.00;76727.38;4967032;28;20177;-66
2023/10/24 05:06:47;;;;;;;27.23;18.10;;;;;;;-149.70;100.00;76733.50;4986089;28;20056;-66
2023/10/24 05:09:16;;;;;;;33.22;17.92;;;;;;;-149.70;100.00;76727.38;4978295;28;20421;-66
2023/10/24 05:11:43;;;;;;;30.17;17.70;;;;;;;-149.70;100.00;76723.31;4963543;28;20050;-66
2023/10/24 05:14:10;;;;;;;42.20;18.02;;;;;;;-149.70;100.00;76723.31;4956630;28;20094;-66
2023/10/24 05:16:40;;;;;;;27.52;16.90;;;;;;;-149.70;100.00;76719.25;4934915;28;20054;-66
2023/10/24 05:19:25;;;;;;;32.17;16.50;;;;;;;-149.70;100.00;76700.97;4933228;28;20134;-66
2023/10/24 05:21:52;;;;;;;26.63;17.00;;;;;;;-149.70;100.00;76700.97;4972561;28;20133;-66
2023/10/24 05:24:18;;;;;;;31.52;17.02;;;;;;;-149.70;100.00;76698.91;4989808;28;20466;-65
2023/10/24 05:26:45;;;;;;;28.23;16.95;;;;;;;-149.70;100.00;76698.91;4988826;28;20081;-65
2023/10/24 05:29:11;;;;;;;30.05;16.13;;;;;;;-149.70;100.00;76711.13;4990081;28;20092;-67
2023/10/24 05:31:38;;;;;;;32.05;17.17;;;;;;;-149.70;100.00;76700.97;4972962;28;20038;-65
2023/10/24 05:34:04;;;;;;;35.45;17.00;;;;;;;-149.70;100.00;76698.91;4990110;28;20125;-66
2023/10/24 05:36:31;;;;;;;33.35;16.98;;;;;;;-149.70;100.00;76703.00;4990507;28;20046;-66
2023/10/24 05:38:57;;;;;;;29.02;17.42;;;;;;;-149.70;100.00;76700.97;4989621;28;20042;-65
2023/10/24 05:41:24;;;;;;;36.10;17.23;;;;;;;-149.70;100.00;76709.09;4989484;28;20101;-65
2023/10/24 05:43:51;;;;;;;32.42;16.33;;;;;;;-149.70;100.00;76709.09;4989693;28;20058;-65
2023/10/24 05:46:18;;;;;;;27.38;16.65;;;;;;;-149.70;100.00;76700.97;4994395;28;20074;-65
2023/10/24 05:48:44;;;;;;;30.67;16.30;;;;;;;-149.70;100.00;76690.78;5006680;28;20073;-65
2023/10/24 05:51:21;;;;;;;27.02;15.10;;;;;;;-149.70;100.00;76698.91;4989362;28;20038;-65
2023/10/24 05:53:49;;;;;;;34.22;14.90;;;;;;;-149.70;100.00;76692.81;4998060;28;20050;-65
2023/10/24 05:56:16;;;;;;;38.08;16.77;;;;;;;-149.70;100.00;76688.75;5008268;28;20127;-65
2023/10/24 05:58:44;;;;;;;29.33;16.40;;;;;;;-149.70;100.00;76684.69;5008528;28;20073;-65
2023/10/24 06:01:11;;;;;;;27.25;16.25;;;;;;;-149.70;100.00;76674.53;5008612;28;20409;-65
2023/10/24 06:03:37;;;;;;;33.28;15.63;;;;;;;-149.70;100.00;76670.44;4989541;28;20038;-65
2023/10/24 06:06:04;;;;;;;28.83;15.63;;;;;;;-149.70;100.00;76672.50;4988696;28;20046;-65
2023/10/24 06:08:31;;;;;;;32.97;16.60;;;;;;;-149.70;100.00;76672.50;4989318;28;20053;-65
2023/10/24 06:10:59;;;;;;;29.42;16.42;;;;;;;-149.70;100.00;76674.53;4988837;28;20062;-65
2023/10/24 06:13:26;;;;;;;27.42;16.15;;;;;;;-149.70;100.00;76682.66;4987868;28;20076;-66
2023/10/24 06:15:53;;;;;;;30.70;15.88;;;;;;;-149.70;100.00;76686.72;4989263;28;20622;-67
2023/10/24 06:18:20;;;;;;;31.60;16.42;;;;;;;-149.70;100.00;76664.34;4989355;28;20475;-65
2023/10/24 06:20:50;;;;;;;34.47;16.92;;;;;;;-149.70;100.00;76666.38;5008959;28;20045;-65
2023/10/24 06:23:16;;;;;;;31.20;15.95;;;;;;;-149.70;100.00;76662.31;5008199;28;20050;-65
2023/10/24 06:25:43;;;;;;;32.38;16.52;;;;;;;-149.70;100.00;76652.16;4984263;28;20085;-64
2023/10/24 06:28:10;;;;;;;34.30;17.25;;;;;;;-149.70;100.00;76637.91;4999396;28;20056;-65
2023/10/24 06:30:40;;;;;;;31.70;16.98;;;;;;;-149.70;100.00;76639.94;4989280;28;20057;-65
2023/10/24 06:33:06;;;;;;;30.15;17.05;;;;;;;-149.70;100.00;76644.03;4989484;28;20483;-65
2023/10/24 06:35:33;;;;;;;34.97;17.08;;;;;;;-149.70;100.00;76646.06;4989669;28;20065;-64
2023/10/24 06:37:59;;;;;;;29.10;16.90;;;;;;;-149.70;100.00;76642.00;4993286;28;20050;-65
2023/10/24 06:40:26;;;;;;;28.90;16.58;;;;;;;-149.70;100.00;76633.84;4993705;28;20046;-65
2023/10/24 06:42:52;;;;;;;30.80;16.05;;;;;;;-149.70;100.00;76621.66;4993189;28;20133;-65
2023/10/24 06:45:19;;;;;;;32.45;16.08;;;;;;;-149.70;100.00;76625.72;4992434;28;20079;-65
2023/10/24 06:47:45;;;;;;;31.23;15.82;;;;;;;-149.70;100.00;76633.84;4992639;28;20050;-64
2023/10/24 06:50:12;;;;;;;29.15;15.88;;;;;;;-149.70;100.00;76615.56;4996763;28;20046;-65
2023/10/24 06:52:41;;;;;;;28.25;15.90;;;;;;;-149.70;100.00;76633.84;5008996;28;20587;-64
2023/10/24 06:55:09;;;;;;;29.05;15.90;;;;;;;-149.70;100.00;76621.66;5005802;28;20109;-65
2023/10/24 06:57:35;;;;;;;38.47;16.27;;;;;;;-149.70;100.00;76623.69;5012061;28;20362;-63
2023/10/24 07:00:03;;;;;;;32.15;16.55;;;;;;;-149.70;100.00;76617.59;5012788;28;20045;-64
2023/10/24 07:02:31;;;;;;;30.63;15.55;;;;;;;-149.70;100.00;76621.66;5012086;28;20124;-64
2023/10/24 07:04:59;;;;;;;31.73;15.50;;;;;;;-149.70;100.00;76623.69;5012267;28;20038;-65
2023/10/24 07:07:26;;;;;;;44.92;15.70;;;;;;;-149.70;100.00;76629.78;5011454;28;20050;-65
2023/10/24 07:09:52;;;;;;;26.63;14.35;;;;;;;-149.70;100.00;76619.63;5011851;28;20731;-65
2023/10/24 07:12:19;;;;;;;28.40;14.20;;;;;;;-149.70;100.00;76623.69;5011600;28;20045;-64
2023/10/24 07:14:45;;;;;;;26.90;14.55;;;;;;;-149.70;100.00;76621.66;5011831;28;20042;-64
2023/10/24 07:17:12;;;;;;;29.05;14.70;;;;;;;-149.70;100.00;76623.69;5011667;28;20490;-64
2023/10/24 07:19:39;;;;;;;23.67;14.45;;;;;;;-149.70;100.00;76605.38;5011654;28;20649;-64
2023/10/24 07:22:05;;;;;;;30.48;15.32;;;;;;;-149.70;100.00;76587.09;5011951;28;20050;-63
2023/10/24 07:24:32;;;;;;;35.60;14.55;;;;;;;-149.70;100.00;76583.03;5012080;28;20655;-64
2023/10/24 07:26:59;;;;;;;29.42;14.90;;;;;;;-149.70;100.00;76580.97;5011585;28;20461;-63
2023/10/24 07:29:28;;;;;;;28.42;14.10;;;;;;;-149.70;100.00;76580.97;5011504;28;20049;-63
2023/10/24 07:31:56;;;;;;;28.83;14.07;;;;;;;-149.70;100.00;76564.72;5011009;28;20053;-65
2023/10/24 07:34:22;;;;;;;22.65;14.38;;;;;;;-149.70;100.00;76572.84;5010296;28;20057;-63
2023/10/24 07:36:49;;;;;;;25.45;13.57;;;;;;;-149.70;100.00;76556.59;5010740;28;20052;-64
2023/10/24 07:39:16;;;;;;;31.35;15.35;;;;;;;-149.70;100.00;76568.78;5010955;28;20461;-64
2023/10/24 07:41:43;;;;;;;28.45;15.43;;;;;;;-149.70;100.00;76564.72;5011033;28;20104;-63
2023/10/24 07:44:11;;;;;;;24.00;13.82;;;;;;;-149.70;100.00;76544.38;5009164;28;20410;-63
2023/10/24 07:46:38;;;;;;;29.30;14.38;;;;;;;-149.70;100.00;76550.47;4991169;28;20109;-63
2023/10/24 07:49:05;;;;;;;26.17;14.43;;;;;;;-149.70;100.00;76564.72;4990542;28;20046;-63
2023/10/24 07:51:31;;;;;;;27.55;14.43;;;;;;;-149.70;100.00;76568.78;4991662;28;20050;-64
2023/10/24 07:53:58;;;;;;;28.42;15.05;;;;;;;-149.70;100.00;76562.69;5004083;28;20132;-64
2023/10/24 07:56:24;;;;;;;27.35;15.15;;;;;;;-149.70;100.00;76566.75;5010729;28;20049;-65
2023/10/24 07:58:51;;;;;;;33.15;14.48;;;;;;;-149.70;100.00;76564.72;5010868;28;20042;-65
2023/10/24 08:01:20;;;;;;;28.77;14.10;;;;;;;-149.70;100.00;76558.63;4993304;28;20104;-64
2023/10/24 08:03:47;;;;;;;30.58;14.13;;;;;;;-149.70;100.00;76568.78;5009934;28;20137;-64
2023/10/24 08:06:13;;;;;;;32.22;16.30;;;;;;;-149.70;100.00;76558.63;5010531;28;20045;-64
2023/10/24 08:08:42;;;;;;;25.33;14.75;;;;;;;-149.70;100.00;76552.50;5010680;28;20041;-64
2023/10/24 08:11:10;;;;;;;31.70;13.93;;;;;;;-149.70;100.00;76532.19;5009774;28;20041;-64
2023/10/24 08:13:36;;;;;;;28.55;16.13;;;;;;;-149.70;100.00;76554.56;4993191;28;20050;-64
2023/10/24 08:16:05;;;;;;;28.35;15.68;;;;;;;-149.70;100.00;76542.34;5009915;28;20498;-63
2023/10/24 08:18:34;;;;;;;31.23;15.18;;;;;;;-149.70;100.00;76534.22;5010875;28;20046;-64
2023/10/24 08:21:01;;;;;;;32.63;15.23;;;;;;;-149.70;100.00;76509.81;5010595;28;20042;-63
2023/10/24 08:23:28;;;;;;;31.67;15.23;;;;;;;-149.70;100.00;76524.06;5010124;28;20050;-66
2023/10/24 08:25:56;;;;;;;34.60;15.27;;;;;;;-149.70;100.00;76511.84;5009355;28;20068;-64
2023/10/24 08:28:23;;;;;;;23.52;15.40;;;;;;;-149.70;100.00;76536.25;5010411;28;20112;-64
2023/10/24 08:30:50;;;;;;;34.78;15.00;;;;;;;-149.70;100.00;76517.94;4992357;28;20041;-64
2023/10/24 08:33:18;;;;;;;29.20;14.93;;;;;;;-149.70;100.00;76511.84;5008878;28;20050;-64
2023/10/24 08:35:45;;;;;;;30.90;14.80;;;;;;;-149.70;100.00;76511.84;5009945;28;20077;-64
2023/10/24 08:38:12;;;;;;;29.30;15.38;;;;;;;-149.70;100.00;76503.72;5009834;28;20498;-64
2023/10/24 08:40:40;;;;;;;25.52;14.20;;;;;;;-149.70;100.00;76491.50;5009926;28;20120;-65
2023/10/24 08:43:08;;;;;;;29.35;13.50;;;;;;;-149.70;100.00;76499.66;5009587;28;20041;-64
2023/10/24 08:45:35;;;;;;;27.70;13.43;;;;;;;-149.70;100.00;76515.91;5007416;28;20049;-65
2023/10/24 08:48:05;;;;;;;30.95;14.18;;;;;;;-149.70;100.00;76511.84;5011036;28;20050;-67
2023/10/24 08:50:33;;;;;;;30.90;14.07;;;;;;;-149.70;100.00;76495.59;5009857;28;20048;-67
2023/10/24 08:53:01;;;;;;;26.80;13.57;;;;;;;-149.70;100.00;76475.25;5007156;28;21106;-67
2023/10/24 08:55:28;;;;;;;27.85;13.93;;;;;;;-149.70;100.00;76503.72;5010269;28;20409;-69
2023/10/24 08:57:59;;;;;;;23.73;13.40;;;;;;;-149.70;100.00;76493.56;5009864;28;20401;-67
2023/10/24 09:00:27;;;;;;;26.85;13.30;;;;;;;-149.70;100.00;76475.25;5009917;28;20072;-67
2023/10/24 09:02:56;;;;;;;31.17;14.43;;;;;;;-149.70;100.00;76489.47;5010091;28;20050;-67
2023/10/24 09:05:27;;;;;;;29.90;13.57;;;;;;;-149.70;100.00;76442.72;5009730;28;20052;-68
2023/10/24 09:07:56;;;;;;;24.13;13.18;;;;;;;-149.70;100.00;76430.53;5009561;28;20134;-67
2023/10/24 09:10:23;;;;;;;22.98;12.32;;;;;;;-149.70;100.00;76434.59;5009886;28;20046;-68
2023/10/24 09:12:55;;;;;;;23.75;12.70;;;;;;;-149.70;100.00;76473.22;5009519;28;20496;-68
2023/10/24 09:15:21;;;;;;;26.20;12.35;;;;;;;-149.70;100.00;76475.25;5009055;28;20115;-68
2023/10/24 09:17:48;;;;;;;20.50;12.32;;;;;;;-149.70;100.00;76458.97;5009741;28;20513;-68
2023/10/24 09:20:18;;;;;;;25.70;13.52;;;;;;;-149.70;100.00;76452.88;5009266;28;20073;-68
2023/10/24 09:22:45;;;;;;;26.20;13.30;;;;;;;-149.70;100.00;76426.44;5010145;28;20104;-68
2023/10/24 09:25:14;;;;;;;25.77;13.95;;;;;;;-149.70;100.00;76412.22;5008937;28;20053;-68
2023/10/24 09:27:40;;;;;;;24.23;13.35;;;;;;;-149.70;100.00;76444.75;5010166;28;20069;-68
2023/10/24 09:30:11;;;;;;;23.67;12.93;;;;;;;-149.70;100.00;76430.53;5009482;28;20042;-68
2023/10/24 09:32:41;;;;;;;22.93;12.77;;;;;;;-149.70;100.00;76434.59;5009340;28;20046;-68
2023/10/24 09:35:08;;;;;;;25.98;14.15;;;;;;;-149.70;100.00;76434.59;5009637;28;20525;-70
2023/10/24 09:37:38;;;;;;;23.30;13.07;;;;;;;-149.70;100.00;76440.69;5009429;28;20053;-68
2023/10/24 09:40:06;;;;;;;25.73;12.65;;;;;;;-149.70;100.00;76428.47;5009399;28;20046;-68
2023/10/24 09:42:32;;;;;;;29.20;13.18;;;;;;;-149.70;100.00;76426.44;5010187;28;20133;-68
2023/10/24 09:45:06;;;;;;;25.30;13.07;;;;;;;-149.70;100.00;76410.19;5000828;28;20574;-68
2023/10/24 09:47:33;;;;;;;22.30;12.95;;;;;;;-149.70;100.00;76412.22;4989890;28;20141;-68
2023/10/24 09:50:08;;;;;;;26.95;13.75;;;;;;;-149.70;100.00;76424.41;4989889;28;20046;-68
2023/10/24 09:52:36;;;;;;;21.88;12.93;;;;;;;-149.70;100.00;76424.41;4989813;28;20050;-67
2023/10/24 09:55:03;;;;;;;24.42;13.27;;;;;;;-149.70;100.00;76391.88;4990303;28;20050;-67
2023/10/24 09:57:30;;;;;;;28.40;13.13;;;;;;;-149.70;100.00;76375.63;4990436;28;20046;-68
2023/10/24 09:59:58;;;;;;;21.52;12.85;;;;;;;-149.70;100.00;76365.44;4990089;28;20050;-67
2023/10/24 10:02:26;;;;;;;24.95;13.20;;;;;;;-149.70;100.00;76357.31;4989625;28;20475;-68
2023/10/24 10:04:54;;;;;;;24.92;13.10;;;;;;;-149.70;100.00;76357.31;4989437;28;20054;-68
2023/10/24 10:07:25;;;;;;;26.90;12.18;;;;;;;-149.70;100.00;76334.94;4989198;28;20092;-68
2023/10/24 10:09:53;;;;;;;22.10;12.60;;;;;;;-149.70;100.00;76318.69;4989745;28;20138;-68
2023/10/24 10:12:20;;;;;;;27.30;11.73;;;;;;;-149.70;100.00;76328.84;4990243;28;20097;-67
2023/10/24 10:14:56;;;;;;;26.98;12.60;;;;;;;-149.70;100.00;76320.72;4992768;28;20057;-68
2023/10/24 10:17:35;;;;;;;23.63;11.75;;;;;;;-149.70;100.00;76328.84;4992797;28;20054;-67
2023/10/24 10:20:12;;;;;;;28.48;12.52;;;;;;;-149.70;100.00;76304.44;4993602;28;20129;-67
2023/10/24 10:22:50;;;;;;;27.88;13.70;;;;;;;-149.70;100.00;76310.56;4993039;28;20711;-67
2023/10/24 10:25:51;;;;;;;20.05;11.70;;;;;;;-149.70;100.00;76316.66;4993372;28;20062;-68
2023/10/24 10:28:53;;;;;;;25.73;11.65;;;;;;;-149.70;100.00;76308.53;4993439;28;20510;-67
2023/10/24 10:31:50;;;;;;;30.70;13.73;;;;;;;-149.70;100.00;76312.59;4993058;28;20046;-67
2023/10/24 10:34:37;;;;;;;29.85;12.23;;;;;;;-149.70;100.00;76288.19;4992703;28;20048;-69
2023/10/24 10:37:04;;;;;;;25.20;12.50;;;;;;;-149.70;100.00;76282.09;4993648;28;20058;-65
2023/10/24 10:39:31;;;;;;;24.17;11.75;;;;;;;-149.70;100.00;76282.09;4994353;28;20105;-66
2023/10/24 10:41:58;;;;;;;28.20;11.80;;;;;;;-149.70;100.00;76294.28;4993561;28;20076;-66
2023/10/24 10:44:42;;;;;;;23.85;11.65;;;;;;;-149.70;100.00;76310.56;4992392;28;20070;-66
2023/10/24 10:47:18;;;;;;;24.15;12.20;;;;;;;-149.70;100.00;76296.31;4992235;28;20482;-66
2023/10/24 10:49:48;;;;;;;22.92;11.43;;;;;;;-149.70;100.00;76294.28;4994516;28;20046;-66
2023/10/24 10:52:30;;;;;;;20.27;11.20;;;;;;;-149.70;100.00;76271.91;5011927;28;20100;-67
2023/10/24 10:55:27;;;;;;;26.98;11.75;;;;;;;-149.70;100.00;76247.53;4992262;28;20054;-65
2023/10/24 10:58:02;;;;;;;24.15;12.20;;;;;;;-149.70;100.00;76217.03;5005778;28;20058;-65
2023/10/24 11:00:42;;;;;;;21.30;11.63;;;;;;;-149.70;100.00;76227.19;5012924;28;20045;-66